createdAt,value
2019-04-25T00:00:48.653Z,53.20
2019-04-25T00:03:22.210Z,53.50
2019-04-25T00:05:52.846Z,53.30
2019-04-25T00:08:23.689Z,53.40
2019-04-25T00:10:54.149Z,55.80
2019-04-25T00:13:24.970Z,56.90
2019-04-25T00:15:55.514Z,57.20
2019-04-25T00:18:25.901Z,57.40
2019-04-25T00:20:57.925Z,56.80
2019-04-25T00:23:28.352Z,57.70
2019-04-25T00:26:11.218Z,58.00
2019-04-25T00:28:44.337Z,58.30
2019-04-25T00:31:15.078Z,58.10
2019-04-25T00:33:46.031Z,58.40
2019-04-25T00:36:16.580Z,58.50
2019-04-25T00:38:48.223Z,58.90
2019-04-25T00:41:19.106Z,60.50
2019-04-25T00:43:50.061Z,61.70
2019-04-25T00:46:22.523Z,62.60
2019-04-25T00:48:53.239Z,65.70
2019-04-25T00:51:23.939Z,62.50
2019-04-25T00:53:54.816Z,63.80
2019-04-25T00:56:25.499Z,65.40
2019-04-25T00:59:03.227Z,67.20
2019-04-25T01:01:41.402Z,67.90
2019-04-25T01:04:13.399Z,67.60
2019-04-25T01:06:44.000Z,67.10
2019-04-25T01:09:16.303Z,65.60
2019-04-25T01:11:46.755Z,69.00
2019-04-25T01:14:17.171Z,70.00
2019-04-25T01:16:48.568Z,68.40
2019-04-25T01:19:19.236Z,70.00
2019-04-25T01:21:49.689Z,70.90
2019-04-25T01:24:21.107Z,69.80
2019-04-25T01:26:51.684Z,69.30
2019-04-25T01:29:23.470Z,68.90
2019-04-25T01:31:54.460Z,72.30
2019-04-25T01:34:36.331Z,69.50
2019-04-25T01:37:11.405Z,70.60
2019-04-25T01:39:44.202Z,71.90
2019-04-25T01:42:20.302Z,70.40
2019-04-25T01:44:53.824Z,70.50
2019-04-25T01:47:24.791Z,71.70
2019-04-25T01:49:55.557Z,72.20
2019-04-25T01:52:26.884Z,73.30
2019-04-25T01:54:58.907Z,73.20
2019-04-25T01:57:29.486Z,74.20
2019-04-25T02:00:00.085Z,74.60
2019-04-25T02:02:30.682Z,75.20
2019-04-25T02:05:01.146Z,77.10
2019-04-25T02:07:33.282Z,77.60
2019-04-25T02:10:06.560Z,77.60
2019-04-25T02:12:38.559Z,79.40
2019-04-25T02:15:09.139Z,80.20
2019-04-25T02:17:39.604Z,81.80
2019-04-25T02:20:10.155Z,81.10
2019-04-25T02:22:40.598Z,84.60
2019-04-25T02:25:10.986Z,84.80
2019-04-25T02:27:41.402Z,85.80
2019-04-25T02:30:15.441Z,84.90
2019-04-25T02:32:45.968Z,82.40
2019-04-25T02:35:16.815Z,84.80
2019-04-25T02:37:47.229Z,82.70
2019-04-25T02:40:23.823Z,82.30
2019-04-25T02:42:55.830Z,82.30
2019-04-25T02:45:44.212Z,80.00
2019-04-25T02:48:25.348Z,80.50
2019-04-25T02:51:01.116Z,76.60
2019-04-25T02:53:37.655Z,77.10
2019-04-25T02:56:27.469Z,76.30
2019-04-25T02:58:40.776Z,74.90
2019-04-25T03:01:19.347Z,70.20
2019-04-25T03:03:45.076Z,67.00
2019-04-25T03:06:15.483Z,65.00
2019-04-25T03:08:54.024Z,62.60
2019-04-25T03:11:24.492Z,60.40
2019-04-25T03:13:55.549Z,57.90
2019-04-25T03:16:26.150Z,57.70
2019-04-25T03:19:16.048Z,54.50
2019-04-25T03:21:48.243Z,54.10
2019-04-25T03:24:18.758Z,52.90
2019-04-25T03:26:53.203Z,51.10
2019-04-25T03:29:24.764Z,49.30
2019-04-25T03:31:56.404Z,49.10
2019-04-25T03:34:26.955Z,47.00
2019-04-25T03:36:57.871Z,47.50
2019-04-25T03:39:30.045Z,47.00
2019-04-25T03:42:02.216Z,45.70
2019-04-25T03:44:33.796Z,46.50
2019-04-25T03:47:08.669Z,46.00
2019-04-25T03:49:40.883Z,45.00
2019-04-25T03:52:12.232Z,44.40
2019-04-25T03:54:43.646Z,45.40
2019-04-25T03:57:14.645Z,47.10
2019-04-25T03:59:50.438Z,46.10
2019-04-25T04:02:23.465Z,45.20
2019-04-25T04:04:59.704Z,42.70
2019-04-25T04:07:30.210Z,42.60
2019-04-25T04:10:00.705Z,42.40
2019-04-25T04:12:33.915Z,41.90
2019-04-25T04:15:10.413Z,42.10
2019-04-25T04:18:01.439Z,43.00
2019-04-25T04:20:36.442Z,41.50
2019-04-25T04:23:14.368Z,41.10
2019-04-25T04:25:45.093Z,40.80
2019-04-25T04:28:16.024Z,40.60
2019-04-25T04:30:46.651Z,40.40
2019-04-25T04:33:29.472Z,41.40
2019-04-25T04:35:49.148Z,41.20
2019-04-25T04:38:21.021Z,41.50
2019-04-25T04:40:55.109Z,40.20
2019-04-25T04:43:25.760Z,38.90
2019-04-25T04:45:58.107Z,38.30
2019-04-25T04:48:54.003Z,37.00
2019-04-25T04:51:37.428Z,39.00
2019-04-25T04:54:11.029Z,39.20
2019-04-25T04:56:41.446Z,38.30
2019-04-25T04:59:12.859Z,38.30
2019-04-25T05:02:03.334Z,37.70
2019-04-25T05:04:37.240Z,36.40
2019-04-25T05:07:11.980Z,38.10
2019-04-25T05:09:44.869Z,37.80
2019-04-25T05:12:17.486Z,37.50
2019-04-25T05:14:48.078Z,37.50
2019-04-25T05:17:21.860Z,37.50
2019-04-25T05:19:53.698Z,37.30
2019-04-25T05:22:33.268Z,43.10
2019-04-25T05:25:04.789Z,43.20
2019-04-25T05:27:45.973Z,42.50
2019-04-25T05:30:10.122Z,42.20
2019-04-25T05:32:40.687Z,41.40
2019-04-25T05:35:11.166Z,42.60
2019-04-25T05:37:43.608Z,42.70
2019-04-25T05:40:15.765Z,43.60
2019-04-25T05:42:50.821Z,42.20
2019-04-25T05:45:28.398Z,40.20
2019-04-25T05:47:59.013Z,40.50
2019-04-25T05:50:29.381Z,38.70
2019-04-25T05:53:00.209Z,36.90
2019-04-25T05:55:30.639Z,37.60
2019-04-25T05:58:01.233Z,38.80
2019-04-25T06:00:31.637Z,37.50
2019-04-25T06:03:03.444Z,36.00
2019-04-25T06:05:37.825Z,34.60
2019-04-25T06:08:10.933Z,34.40
2019-04-25T06:11:04.045Z,33.90
2019-04-25T06:13:43.371Z,35.20
2019-04-25T06:16:20.204Z,35.80
2019-04-25T06:18:52.284Z,34.90
2019-04-25T06:21:23.572Z,34.80
2019-04-25T06:24:07.883Z,33.80
2019-04-25T06:26:40.116Z,33.50
2019-04-25T06:29:10.832Z,34.50
2019-04-25T06:31:43.913Z,33.60
2019-04-25T06:34:14.811Z,32.50
2019-04-25T06:36:45.270Z,32.30
2019-04-25T06:39:17.346Z,33.60
2019-04-25T06:41:47.791Z,34.10
2019-04-25T06:44:20.658Z,35.40
2019-04-25T06:47:03.700Z,36.60
2019-04-25T06:49:40.049Z,39.20
2019-04-25T06:52:13.840Z,40.90
2019-04-25T06:54:48.884Z,41.40
2019-04-25T06:57:22.018Z,43.50
2019-04-25T06:59:55.691Z,45.20
2019-04-25T07:02:28.892Z,44.90
2019-04-25T07:04:59.975Z,45.60
2019-04-25T07:07:32.033Z,46.80
2019-04-25T07:10:09.321Z,47.50
2019-04-25T07:12:39.777Z,47.30
2019-04-25T07:15:13.799Z,47.60
2019-04-25T07:17:45.830Z,48.90
2019-04-25T07:20:16.803Z,48.50
2019-04-25T07:22:51.239Z,48.50
2019-04-25T07:25:26.347Z,48.70
2019-04-25T07:28:23.892Z,48.00
2019-04-25T07:30:54.491Z,48.20
2019-04-25T07:33:29.684Z,48.30
2019-04-25T07:36:01.751Z,48.50
2019-04-25T07:38:33.793Z,48.50
2019-04-25T07:41:07.008Z,47.90
2019-04-25T07:43:39.052Z,47.70
2019-04-25T07:46:13.359Z,47.70
2019-04-25T07:48:43.895Z,47.90
2019-04-25T07:51:16.431Z,47.60
2019-04-25T07:53:46.720Z,46.70
2019-04-25T07:56:19.754Z,46.90
2019-04-25T07:58:52.702Z,47.10
2019-04-25T08:01:25.618Z,47.10
2019-04-25T08:03:56.092Z,47.20
2019-04-25T08:06:27.988Z,46.80
2019-04-25T08:09:01.169Z,46.60
2019-04-25T08:11:34.182Z,46.40
2019-04-25T08:14:10.419Z,46.90
2019-04-25T08:16:53.768Z,46.10
2019-04-25T08:19:28.722Z,45.70
2019-04-25T08:22:01.439Z,46.10
2019-04-25T08:24:37.259Z,46.90
2019-04-25T08:27:13.778Z,46.40
2019-04-25T08:29:48.521Z,45.30
2019-04-25T08:32:21.362Z,45.00
2019-04-25T08:34:54.282Z,44.50
2019-04-25T08:37:24.932Z,43.20
2019-04-25T08:39:58.361Z,44.70
2019-04-25T08:42:32.821Z,45.50
2019-04-25T08:45:08.062Z,44.90
2019-04-25T08:47:40.117Z,44.80
2019-04-25T08:50:26.785Z,43.70
2019-04-25T08:52:51.831Z,43.20
2019-04-25T08:55:42.053Z,43.50
2019-04-25T08:58:23.663Z,42.70
2019-04-25T09:01:14.171Z,42.30
2019-04-25T09:04:05.317Z,42.50
2019-04-25T09:06:36.496Z,43.70
2019-04-25T09:09:08.530Z,42.70
2019-04-25T09:11:40.054Z,42.10
2019-04-25T09:14:10.701Z,41.20
2019-04-25T09:16:44.195Z,41.40
2019-04-25T09:19:14.810Z,41.60
2019-04-25T09:21:49.146Z,41.20
2019-04-25T09:24:21.843Z,40.70
2019-04-25T09:26:52.014Z,40.20
2019-04-25T09:29:23.502Z,40.10
2019-04-25T09:31:54.249Z,40.10
2019-04-25T09:34:24.775Z,39.90
2019-04-25T09:36:57.144Z,40.00
2019-04-25T09:39:45.460Z,40.50
2019-04-25T09:42:16.003Z,39.90
2019-04-25T09:44:50.973Z,39.80
2019-04-25T09:47:21.279Z,38.90
2019-04-25T09:49:51.960Z,38.70
2019-04-25T09:52:24.459Z,38.20
2019-04-25T09:55:05.516Z,39.10
2019-04-25T09:57:41.087Z,38.10
2019-04-25T10:00:13.618Z,38.00
2019-04-25T10:02:44.622Z,36.80
2019-04-25T10:05:15.426Z,35.80
2019-04-25T10:07:46.362Z,35.80
2019-04-25T10:10:17.926Z,35.00
2019-04-25T10:12:48.212Z,35.80
2019-04-25T10:15:30.448Z,36.10
2019-04-25T10:18:01.013Z,35.00
2019-04-25T10:20:33.268Z,34.20
2019-04-25T10:23:05.051Z,34.30
2019-04-25T10:25:35.569Z,34.40
2019-04-25T10:28:07.156Z,35.80
2019-04-25T10:30:37.552Z,33.30
2019-04-25T10:33:08.050Z,32.50
2019-04-25T10:35:47.949Z,33.10
2019-04-25T10:38:10.569Z,32.80
2019-04-25T10:40:40.952Z,33.40
2019-04-25T10:43:11.705Z,33.40
2019-04-25T10:45:44.743Z,33.00
2019-04-25T10:48:15.898Z,33.50
2019-04-25T10:50:47.425Z,34.20
2019-04-25T10:53:18.631Z,34.20
2019-04-25T10:55:49.706Z,33.70
2019-04-25T10:58:20.461Z,33.80
2019-04-25T11:00:52.921Z,34.30
2019-04-25T11:03:33.836Z,33.80
2019-04-25T11:06:04.011Z,34.50
2019-04-25T11:08:34.698Z,34.30
2019-04-25T11:11:05.843Z,34.30
2019-04-25T11:13:36.659Z,34.30
2019-04-25T11:16:08.343Z,33.90
2019-04-25T11:18:38.789Z,33.40
2019-04-25T11:21:09.391Z,33.50
2019-04-25T11:23:40.520Z,33.40
2019-04-25T11:26:11.981Z,34.00
2019-04-25T11:28:45.125Z,33.50
2019-04-25T11:31:16.116Z,33.90
2019-04-25T11:33:46.588Z,34.00
2019-04-25T11:36:16.995Z,33.20
2019-04-25T11:39:05.118Z,33.20
2019-04-25T11:41:36.130Z,33.00
2019-04-25T11:44:07.228Z,33.30
2019-04-25T11:46:39.345Z,32.90
2019-04-25T11:49:09.744Z,32.90
2019-04-25T11:51:40.291Z,32.90
2019-04-25T11:54:10.651Z,33.50
2019-04-25T11:56:42.659Z,33.50
2019-04-25T11:59:13.735Z,33.40
2019-04-25T12:01:47.557Z,33.00
2019-04-25T12:04:17.762Z,33.00
2019-04-25T12:06:48.346Z,34.30
2019-04-25T12:09:19.877Z,33.10
2019-04-25T12:11:50.335Z,32.90
2019-04-25T12:14:20.633Z,32.90
2019-04-25T12:16:51.901Z,33.10
2019-04-25T12:19:33.099Z,32.40
2019-04-25T12:21:56.689Z,32.30
2019-04-25T12:24:27.490Z,33.00
2019-04-25T12:26:57.975Z,33.30
2019-04-25T12:29:28.282Z,32.90
2019-04-25T12:31:58.759Z,33.20
2019-04-25T12:34:29.098Z,33.20
2019-04-25T12:37:01.028Z,33.90
2019-04-25T12:39:31.398Z,33.20
2019-04-25T12:42:01.886Z,33.30
2019-04-25T12:44:50.876Z,33.70
2019-04-25T12:47:25.701Z,33.30
2019-04-25T12:49:56.156Z,33.10
2019-04-25T12:52:26.495Z,33.40
2019-04-25T12:55:01.956Z,33.30
2019-04-25T12:57:34.369Z,33.50
2019-04-25T13:00:06.006Z,34.00
2019-04-25T13:02:37.426Z,34.70
2019-04-25T13:05:08.128Z,34.10
2019-04-25T13:07:38.673Z,32.80
2019-04-25T13:10:15.372Z,32.60
2019-04-25T13:12:47.284Z,32.90
2019-04-25T13:15:19.275Z,32.40
2019-04-25T13:17:53.697Z,32.50
2019-04-25T13:20:24.199Z,33.30
2019-04-25T13:22:56.374Z,32.80
2019-04-25T13:25:27.175Z,32.60
2019-04-25T13:28:17.287Z,32.70
2019-04-25T13:31:04.100Z,33.00
2019-04-25T13:33:37.021Z,33.50
2019-04-25T13:36:09.181Z,32.90
2019-04-25T13:38:45.966Z,33.90
2019-04-25T13:41:21.460Z,33.20
2019-04-25T13:43:54.741Z,33.80
2019-04-25T13:46:27.706Z,33.10
2019-04-25T13:48:58.449Z,33.60
2019-04-25T13:51:28.896Z,33.50
2019-04-25T13:54:00.978Z,33.40
2019-04-25T13:56:40.383Z,33.70
2019-04-25T13:59:08.294Z,33.90
2019-04-25T14:01:38.834Z,33.50
2019-04-25T14:04:09.914Z,33.80
2019-04-25T14:06:40.478Z,33.40
2019-04-25T14:09:13.319Z,32.80
2019-04-25T14:11:48.371Z,32.60
2019-04-25T14:14:18.910Z,32.80
2019-04-25T14:16:59.929Z,32.90
2019-04-25T14:19:40.783Z,33.10
2019-04-25T14:22:15.854Z,33.20
2019-04-25T14:24:46.758Z,33.40
2019-04-25T14:27:18.452Z,33.40
2019-04-25T14:29:49.150Z,33.70
2019-04-25T14:32:20.230Z,33.90
2019-04-25T14:34:50.755Z,34.20
2019-04-25T14:37:22.141Z,34.40
2019-04-25T14:39:53.641Z,34.30
2019-04-25T14:42:26.398Z,34.40
2019-04-25T14:44:57.234Z,34.20
2019-04-25T14:47:29.553Z,34.20
2019-04-25T14:50:05.123Z,34.40
2019-04-25T14:52:35.656Z,34.30
2019-04-25T14:55:27.356Z,34.50
2019-04-25T14:57:59.618Z,34.40
2019-04-25T15:00:37.807Z,33.90
2019-04-25T15:03:08.182Z,34.40
2019-04-25T15:05:41.867Z,34.10
2019-04-25T15:08:11.084Z,35.30
2019-04-25T15:10:41.600Z,35.30
2019-04-25T15:13:12.677Z,35.50
2019-04-25T15:15:43.265Z,35.10
2019-04-25T15:18:13.849Z,34.70
2019-04-25T15:20:44.983Z,34.80
2019-04-25T15:23:15.431Z,35.30
2019-04-25T15:25:46.121Z,35.80
2019-04-25T15:28:16.604Z,37.40
2019-04-25T15:30:47.120Z,37.50
2019-04-25T15:33:17.640Z,37.60
2019-04-25T15:35:49.716Z,39.50
2019-04-25T15:38:27.676Z,39.10
2019-04-25T15:41:01.167Z,39.50
2019-04-25T15:43:51.457Z,41.10
2019-04-25T15:46:23.638Z,41.60
2019-04-25T15:48:54.036Z,41.90
2019-04-25T15:51:25.435Z,41.20
2019-04-25T15:53:56.061Z,42.00
2019-04-25T15:56:27.457Z,41.50
2019-04-25T15:58:59.042Z,41.60
2019-04-25T16:01:32.479Z,42.00
2019-04-25T16:04:04.737Z,42.00
2019-04-25T16:06:36.350Z,42.60
2019-04-25T16:09:10.508Z,42.50
2019-04-25T16:11:41.343Z,43.00
2019-04-25T16:14:11.874Z,43.30
2019-04-25T16:17:23.795Z,43.60
2019-04-25T16:19:51.704Z,43.90
2019-04-25T16:22:22.231Z,44.30
2019-04-25T16:24:52.968Z,45.00
2019-04-25T16:27:23.486Z,45.10
2019-04-25T16:29:53.887Z,46.20
2019-04-25T16:32:25.934Z,45.90
2019-04-25T16:34:56.202Z,46.80
2019-04-25T16:37:26.758Z,47.40
2019-04-25T16:40:00.208Z,49.00
2019-04-25T16:42:31.991Z,49.90
2019-04-25T16:45:02.382Z,50.50
2019-04-25T16:47:35.183Z,51.20
2019-04-25T16:50:06.982Z,53.60
2019-04-25T16:52:38.001Z,55.20
2019-04-25T16:55:14.111Z,55.50
2019-04-25T16:57:44.655Z,55.90
2019-04-25T17:00:22.776Z,56.90
2019-04-25T17:02:58.272Z,57.20
2019-04-25T17:05:35.644Z,56.30
2019-04-25T17:08:09.464Z,56.60
2019-04-25T17:10:39.963Z,56.00
2019-04-25T17:13:10.720Z,56.50
2019-04-25T17:15:45.640Z,57.00
2019-04-25T17:18:23.385Z,58.10
2019-04-25T17:21:07.340Z,58.50
2019-04-25T17:23:37.833Z,58.60
2019-04-25T17:26:08.285Z,59.00
2019-04-25T17:28:41.130Z,59.80
2019-04-25T17:31:28.914Z,60.80
2019-04-25T17:34:04.299Z,61.00
2019-04-25T17:36:50.885Z,58.40
2019-04-25T17:39:39.776Z,57.70
2019-04-25T17:42:12.055Z,57.60
2019-04-25T17:44:44.592Z,57.50
2019-04-25T17:47:15.013Z,58.00
2019-04-25T17:49:48.415Z,57.20
2019-04-25T17:52:18.888Z,57.40
2019-04-25T17:54:49.243Z,57.20
2019-04-25T17:57:23.035Z,56.80
2019-04-25T17:59:53.494Z,56.00
2019-04-25T18:02:24.066Z,56.00
2019-04-25T18:04:56.134Z,56.00
2019-04-25T18:07:28.134Z,55.80
2019-04-25T18:10:00.257Z,55.90
2019-04-25T18:12:30.836Z,55.80
2019-04-25T18:15:04.740Z,56.90
2019-04-25T18:17:36.597Z,57.10
2019-04-25T18:20:11.580Z,57.00
2019-04-25T18:22:49.294Z,56.80
2019-04-25T18:25:27.194Z,56.90
2019-04-25T18:28:03.110Z,57.00
2019-04-25T18:30:33.562Z,57.20
2019-04-25T18:33:12.479Z,57.30
2019-04-25T18:35:44.581Z,57.80
2019-04-25T18:38:25.577Z,57.90
2019-04-25T18:41:03.443Z,58.30
2019-04-25T18:43:36.657Z,57.60
2019-04-25T18:46:21.446Z,57.90
2019-04-25T18:49:06.352Z,57.90
2019-04-25T18:51:38.452Z,58.30
2019-04-25T18:54:10.623Z,58.30
2019-04-25T18:56:53.765Z,58.10
2019-04-25T18:59:48.115Z,59.10
2019-04-25T19:02:41.970Z,58.10
2019-04-25T19:05:17.218Z,58.10
2019-04-25T19:07:55.253Z,58.60
2019-04-25T19:17:02.145Z,61.50
2019-04-25T19:19:39.694Z,60.50
2019-04-25T19:22:13.376Z,60.10
2019-04-25T19:24:50.760Z,61.10
2019-04-25T19:27:23.838Z,61.10
2019-04-25T19:30:16.585Z,61.70
2019-04-25T19:32:49.277Z,61.10
2019-04-25T19:35:20.173Z,61.60
2019-04-25T19:37:59.080Z,61.10
2019-04-25T19:40:42.287Z,61.10
2019-04-25T19:43:19.027Z,60.60
2019-04-25T19:45:49.961Z,60.30
2019-04-25T19:48:29.847Z,60.20
2019-04-25T19:51:08.286Z,59.70
2019-04-25T19:53:43.115Z,59.30
2019-04-25T19:56:14.776Z,58.90
2019-04-25T19:58:47.210Z,59.00
2019-04-25T20:01:17.916Z,58.70
2019-04-25T20:04:03.817Z,58.80
2019-04-25T20:07:05.457Z,58.90
2019-04-25T20:10:00.868Z,58.80
2019-04-25T20:12:37.444Z,58.50
2019-04-25T20:15:21.196Z,58.60
2019-04-25T20:17:51.976Z,58.60
2019-04-25T20:20:23.634Z,58.50
2019-04-25T20:22:56.877Z,59.30
2019-04-25T20:25:29.944Z,58.70
2019-04-25T20:28:00.308Z,58.50
2019-04-25T20:30:31.663Z,59.20
2019-04-25T20:33:07.813Z,58.90
2019-04-25T20:35:44.867Z,58.90
2019-04-25T20:38:19.647Z,58.90
2019-04-25T20:40:51.751Z,58.90
2019-04-25T20:43:22.205Z,59.00
2019-04-25T20:45:54.486Z,59.30
2019-04-25T20:48:27.135Z,59.20
2019-04-25T20:50:57.657Z,58.80
2019-04-25T20:53:31.148Z,59.30
2019-04-25T20:56:05.718Z,58.20
2019-04-25T20:58:38.070Z,57.60
2019-04-25T21:01:08.527Z,57.10
2019-04-25T21:03:39.132Z,56.80
2019-04-25T21:06:13.054Z,56.50
2019-04-25T21:08:46.287Z,57.00
2019-04-25T21:11:17.223Z,57.00
2019-04-25T21:14:01.615Z,57.20
2019-04-25T21:16:42.971Z,57.30
2019-04-25T21:19:17.870Z,57.40
2019-04-25T21:21:48.236Z,57.60
2019-04-25T21:24:18.634Z,57.70
2019-04-25T21:26:51.675Z,58.10
2019-04-25T21:29:23.322Z,58.20
2019-04-25T21:31:57.065Z,57.80
2019-04-25T21:34:30.787Z,57.70
2019-04-25T21:37:02.155Z,57.40
2019-04-25T21:39:52.722Z,57.40
2019-04-25T21:42:32.602Z,57.60
2019-04-25T21:45:03.247Z,57.70
2019-04-25T21:47:35.638Z,58.10
2019-04-25T21:50:07.836Z,58.20
2019-04-25T21:52:38.435Z,58.50
2019-04-25T21:55:11.908Z,58.40
2019-04-25T21:57:42.766Z,58.30
2019-04-25T22:00:16.018Z,59.10
2019-04-25T22:02:56.049Z,59.10
2019-04-25T22:05:26.620Z,59.20
2019-04-25T22:07:58.286Z,59.20
2019-04-25T22:10:32.646Z,59.60
2019-04-25T22:13:13.514Z,59.50
2019-04-25T22:15:35.061Z,59.30
2019-04-25T22:18:06.719Z,59.40
2019-04-25T22:20:37.602Z,59.10
2019-04-25T22:23:08.204Z,59.50
2019-04-25T22:25:39.716Z,58.70
2019-04-25T22:28:10.611Z,58.70
2019-04-25T22:30:43.131Z,58.30
2019-04-25T22:33:18.182Z,58.10
2019-04-25T22:35:50.682Z,57.90
2019-04-25T22:38:21.311Z,58.10
2019-04-25T22:40:51.708Z,57.70
2019-04-25T22:43:23.659Z,57.20
2019-04-25T22:45:54.647Z,57.10
2019-04-25T22:48:26.824Z,56.90
2019-04-25T22:50:57.479Z,56.20
2019-04-25T22:53:35.199Z,56.20
2019-04-25T22:56:05.670Z,56.50
2019-04-25T22:58:36.238Z,56.60
2019-04-25T23:01:09.175Z,56.20
2019-04-25T23:03:41.497Z,56.20
2019-04-25T23:06:12.134Z,55.50
2019-04-25T23:08:42.583Z,55.70
2019-04-25T23:11:13.564Z,55.60
2019-04-25T23:13:44.613Z,55.70
2019-04-25T23:16:15.657Z,56.00
2019-04-25T23:18:46.058Z,55.90
2019-04-25T23:21:16.495Z,56.00
2019-04-25T23:23:46.988Z,55.80
2019-04-25T23:26:21.907Z,55.90
2019-04-25T23:28:56.499Z,55.80
2019-04-25T23:31:37.476Z,55.90
2019-04-25T23:34:09.273Z,56.70
2019-04-25T23:36:39.688Z,55.80
2019-04-25T23:39:11.261Z,55.60
2019-04-25T23:41:41.997Z,55.70
2019-04-25T23:44:12.474Z,55.80
2019-04-25T23:46:43.424Z,55.70
2019-04-25T23:49:14.763Z,56.20
2019-04-25T23:51:45.528Z,56.30
2019-04-25T23:54:17.135Z,56.60
2019-04-25T23:56:47.825Z,56.40
2019-04-25T23:59:20.476Z,56.30
